createdAt,value
2022-10-30T00:02:21.773Z,7.85
2022-10-30T00:04:48.463Z,7.83
2022-10-30T00:07:15.001Z,7.80
2022-10-30T00:09:41.545Z,7.79
2022-10-30T00:12:08.183Z,7.77
2022-10-30T00:14:34.726Z,7.77
2022-10-30T00:17:01.142Z,7.76
2022-10-30T00:19:27.811Z,7.76
2022-10-30T00:21:54.243Z,7.79
2022-10-30T00:24:20.683Z,7.80
2022-10-30T00:26:47.148Z,7.83
2022-10-30T00:29:13.588Z,7.86
2022-10-30T00:31:40.114Z,7.89
2022-10-30T00:34:06.637Z,7.93
2022-10-30T00:36:33.112Z,7.96
2022-10-30T00:38:59.644Z,8.01
2022-10-30T00:41:26.161Z,8.03
2022-10-30T00:43:53.252Z,8.04
2022-10-30T00:46:39.717Z,8.02
2022-10-30T00:49:12.553Z,7.98
2022-10-30T00:51:46.353Z,7.92
2022-10-30T00:54:16.397Z,7.85
2022-10-30T00:56:44.721Z,7.79
2022-10-30T00:59:17.025Z,7.74
2022-10-30T01:01:46.379Z,7.68
2022-10-30T01:04:14.392Z,7.63
2022-10-30T01:06:45.042Z,7.59
2022-10-30T01:09:11.573Z,7.55
2022-10-30T01:11:38.086Z,7.51
2022-10-30T01:14:07.284Z,7.48
2022-10-30T01:16:50.619Z,7.44
2022-10-30T01:19:52.678Z,7.41
2022-10-30T01:22:26.469Z,7.41
2022-10-30T01:25:11.783Z,7.39
2022-10-30T01:28:16.418Z,7.36
2022-10-30T01:30:58.320Z,7.33
2022-10-30T01:33:46.675Z,7.29
2022-10-30T01:36:22.430Z,7.27
2022-10-30T01:39:00.032Z,7.27
2022-10-30T01:41:26.965Z,7.27
2022-10-30T01:43:58.540Z,7.28
2022-10-30T01:46:30.913Z,7.30
2022-10-30T01:49:38.538Z,7.34
2022-10-30T01:52:26.161Z,7.38
2022-10-30T01:55:20.867Z,7.42
2022-10-30T01:58:15.667Z,7.44
2022-10-30T02:00:45.494Z,7.46
2022-10-30T02:03:12.753Z,7.47
2022-10-30T02:05:44.089Z,7.50
2022-10-30T02:08:10.732Z,7.51
2022-10-30T02:10:38.403Z,7.53
2022-10-30T02:13:05.688Z,7.57
2022-10-30T02:15:32.901Z,7.61
2022-10-30T02:18:00.013Z,7.64
2022-10-30T02:20:27.107Z,7.67
2022-10-30T02:22:58.022Z,7.71
2022-10-30T02:25:25.926Z,7.74
2022-10-30T02:27:52.670Z,7.77
2022-10-30T02:30:19.311Z,7.80
2022-10-30T02:32:45.975Z,7.83
2022-10-30T02:35:12.545Z,7.84
2022-10-30T02:37:39.231Z,7.85
2022-10-30T02:40:06.778Z,7.85
2022-10-30T02:42:33.335Z,7.82
2022-10-30T02:44:59.735Z,7.79
2022-10-30T02:47:26.517Z,7.75
2022-10-30T02:49:52.979Z,7.70
2022-10-30T02:52:19.450Z,7.65
2022-10-30T02:54:45.933Z,7.63
2022-10-30T02:57:12.471Z,7.61
2022-10-30T02:59:39.018Z,7.58
2022-10-30T03:02:05.517Z,7.58
2022-10-30T03:04:32.082Z,7.57
2022-10-30T03:06:58.630Z,7.55
2022-10-30T03:09:25.177Z,7.54
2022-10-30T03:11:51.709Z,7.50
2022-10-30T03:14:18.250Z,7.47
2022-10-30T03:16:44.787Z,7.45
2022-10-30T03:19:11.335Z,7.44
2022-10-30T03:21:39.685Z,7.41
2022-10-30T03:24:06.353Z,7.39
2022-10-30T03:26:32.818Z,7.36
2022-10-30T03:28:59.346Z,7.32
2022-10-30T03:31:25.978Z,7.29
2022-10-30T03:33:52.519Z,7.27
2022-10-30T03:36:18.954Z,7.25
2022-10-30T03:38:45.413Z,7.23
2022-10-30T03:41:11.870Z,7.19
2022-10-30T03:43:38.380Z,7.16
2022-10-30T03:46:05.018Z,7.15
2022-10-30T03:48:31.477Z,7.13
2022-10-30T03:50:59.633Z,7.11
2022-10-30T03:53:27.618Z,7.10
2022-10-30T03:55:58.656Z,7.10
2022-10-30T03:58:25.916Z,7.10
2022-10-30T04:00:52.645Z,7.07
2022-10-30T04:03:19.284Z,7.04
2022-10-30T04:05:45.923Z,7.01
2022-10-30T04:08:14.399Z,6.97
2022-10-30T04:10:46.441Z,6.94
2022-10-30T04:13:15.884Z,6.89
2022-10-30T04:15:43.040Z,6.84
2022-10-30T04:18:11.985Z,6.80
2022-10-30T04:20:39.009Z,6.80
2022-10-30T04:23:07.532Z,6.79
2022-10-30T04:25:35.536Z,6.72
2022-10-30T04:28:03.008Z,6.65
2022-10-30T04:30:29.957Z,6.61
2022-10-30T04:32:58.018Z,6.62
2022-10-30T04:35:26.939Z,6.65
2022-10-30T04:37:55.550Z,6.72
2022-10-30T04:40:24.275Z,6.78
2022-10-30T04:42:51.750Z,6.81
2022-10-30T04:45:18.824Z,6.80
2022-10-30T04:47:46.125Z,6.79
2022-10-30T04:50:13.967Z,6.76
2022-10-30T04:52:41.122Z,6.73
2022-10-30T04:55:09.837Z,6.68
2022-10-30T04:57:37.159Z,6.64
2022-10-30T05:00:08.252Z,6.61
2022-10-30T05:02:36.251Z,6.57
2022-10-30T05:05:04.251Z,6.54
2022-10-30T05:07:30.997Z,6.53
2022-10-30T05:09:57.536Z,6.51
2022-10-30T05:12:24.073Z,6.51
2022-10-30T05:14:50.613Z,6.50
2022-10-30T05:17:17.207Z,6.47
2022-10-30T05:19:43.748Z,6.44
2022-10-30T05:22:10.235Z,6.41
2022-10-30T05:24:36.701Z,6.36
2022-10-30T05:27:03.212Z,6.34
2022-10-30T05:29:29.750Z,6.33
2022-10-30T05:31:56.291Z,6.31
2022-10-30T05:34:22.830Z,6.29
2022-10-30T05:36:49.303Z,6.29
2022-10-30T05:39:15.805Z,6.30
2022-10-30T05:41:42.234Z,6.30
2022-10-30T05:44:08.675Z,6.30
2022-10-30T05:46:35.313Z,6.32
2022-10-30T05:49:01.855Z,6.34
2022-10-30T05:51:28.265Z,6.37
2022-10-30T05:53:54.840Z,6.40
2022-10-30T05:56:21.376Z,6.43
2022-10-30T05:58:51.086Z,6.47
2022-10-30T06:01:17.874Z,6.52
2022-10-30T06:03:45.087Z,6.55
2022-10-30T06:06:12.139Z,6.58
2022-10-30T06:08:38.930Z,6.61
2022-10-30T06:11:05.398Z,6.64
2022-10-30T06:13:31.971Z,6.69
2022-10-30T06:15:58.500Z,6.85
2022-10-30T06:18:25.043Z,7.04
2022-10-30T06:20:51.582Z,7.21
2022-10-30T06:23:18.225Z,7.43
2022-10-30T06:25:44.675Z,7.68
2022-10-30T06:28:11.622Z,7.86
2022-10-30T06:30:38.237Z,8.08
2022-10-30T06:33:06.235Z,8.35
2022-10-30T06:35:32.875Z,8.65
2022-10-30T06:37:59.672Z,8.93
2022-10-30T06:40:27.703Z,9.20
2022-10-30T06:42:54.448Z,9.46
2022-10-30T06:45:23.439Z,9.76
2022-10-30T06:47:50.494Z,10.07
2022-10-30T06:50:20.336Z,10.37
2022-10-30T06:52:46.856Z,10.56
2022-10-30T06:55:13.388Z,10.75
2022-10-30T06:57:40.035Z,10.95
2022-10-30T07:00:07.904Z,11.18
2022-10-30T07:02:35.059Z,11.45
2022-10-30T07:05:01.569Z,11.75
2022-10-30T07:07:28.751Z,11.93
2022-10-30T07:09:55.294Z,12.07
2022-10-30T07:12:21.724Z,12.10
2022-10-30T07:14:48.170Z,12.34
2022-10-30T07:17:14.706Z,12.65
2022-10-30T07:19:41.250Z,12.87
2022-10-30T07:22:07.697Z,13.20
2022-10-30T07:24:34.226Z,13.50
2022-10-30T07:27:00.670Z,13.73
2022-10-30T07:29:27.206Z,13.86
2022-10-30T07:32:08.322Z,13.88
2022-10-30T07:34:35.033Z,13.99
2022-10-30T07:37:01.625Z,14.17
2022-10-30T07:39:28.103Z,14.44
2022-10-30T07:41:54.661Z,14.68
2022-10-30T07:44:21.083Z,14.79
2022-10-30T07:46:47.828Z,14.48
2022-10-30T07:49:14.478Z,14.23
2022-10-30T07:51:41.010Z,14.11
2022-10-30T07:54:07.551Z,14.12
2022-10-30T07:56:34.097Z,14.23
2022-10-30T07:59:00.636Z,14.26
2022-10-30T08:01:27.180Z,14.25
2022-10-30T08:03:53.818Z,14.25
2022-10-30T08:06:23.218Z,14.23
2022-10-30T08:08:53.144Z,14.35
2022-10-30T08:11:19.690Z,14.48
2022-10-30T08:13:46.425Z,14.59
2022-10-30T08:16:12.877Z,14.52
2022-10-30T08:18:39.414Z,14.37
2022-10-30T08:21:06.051Z,14.32
2022-10-30T08:23:32.472Z,14.53
2022-10-30T08:25:59.027Z,14.92
2022-10-30T08:28:29.897Z,15.34
2022-10-30T08:31:00.721Z,15.52
2022-10-30T08:33:27.170Z,15.54
2022-10-30T08:35:56.272Z,15.75
2022-10-30T08:38:23.020Z,16.02
2022-10-30T08:40:49.499Z,16.13
2022-10-30T08:43:16.685Z,16.25
2022-10-30T08:45:43.638Z,16.43
2022-10-30T08:48:12.355Z,16.61
2022-10-30T08:50:38.868Z,16.89
2022-10-30T08:53:07.385Z,17.19
2022-10-30T08:55:34.934Z,17.38
2022-10-30T08:58:02.121Z,17.58
2022-10-30T09:00:29.913Z,17.69
2022-10-30T09:02:57.022Z,17.85
2022-10-30T09:05:24.048Z,18.00
2022-10-30T09:07:56.719Z,18.04
2022-10-30T09:10:23.943Z,18.04
2022-10-30T09:12:58.308Z,18.09
2022-10-30T09:15:26.132Z,18.21
2022-10-30T09:18:03.252Z,18.50
2022-10-30T09:20:31.045Z,18.72
2022-10-30T09:22:58.391Z,18.89
2022-10-30T09:25:25.459Z,19.02
2022-10-30T09:27:51.898Z,19.21
2022-10-30T09:30:18.437Z,19.36
2022-10-30T09:32:44.979Z,19.52
2022-10-30T09:35:11.623Z,19.58
2022-10-30T09:37:39.470Z,19.74
2022-10-30T09:40:07.882Z,19.95
2022-10-30T09:42:42.437Z,19.96
2022-10-30T09:45:29.792Z,20.17
2022-10-30T09:48:22.283Z,20.47
2022-10-30T09:50:51.587Z,20.56
2022-10-30T09:53:33.833Z,20.53
2022-10-30T09:56:34.430Z,20.59
2022-10-30T09:59:17.765Z,20.40
2022-10-30T10:01:52.603Z,20.40
2022-10-30T10:04:31.228Z,20.42
2022-10-30T10:07:07.600Z,20.41
2022-10-30T10:09:36.322Z,20.39
2022-10-30T10:12:08.057Z,20.23
2022-10-30T10:14:39.665Z,19.99
2022-10-30T10:17:13.835Z,19.69
2022-10-30T10:19:57.507Z,19.53
2022-10-30T10:22:39.496Z,19.50
2022-10-30T10:25:12.666Z,19.46
2022-10-30T10:27:57.538Z,19.30
2022-10-30T10:30:26.648Z,19.32
2022-10-30T10:33:15.103Z,19.28
2022-10-30T10:36:00.074Z,19.28
2022-10-30T10:38:50.354Z,19.27
2022-10-30T10:41:25.501Z,19.29
2022-10-30T10:44:10.664Z,19.25
2022-10-30T10:47:09.393Z,19.27
2022-10-30T10:50:23.736Z,19.36
2022-10-30T10:52:57.893Z,19.55
2022-10-30T10:55:35.385Z,19.64
2022-10-30T10:58:13.152Z,19.74
2022-10-30T11:00:41.003Z,20.00
2022-10-30T11:06:18.189Z,20.52
2022-10-30T11:08:45.137Z,20.70
2022-10-30T11:11:11.745Z,20.84
2022-10-30T11:13:41.350Z,20.99
2022-10-30T11:16:30.521Z,21.04
2022-10-30T11:19:03.722Z,21.05
2022-10-30T11:21:42.019Z,20.95
2022-10-30T11:24:31.707Z,20.81
2022-10-30T11:27:16.161Z,20.92
2022-10-30T11:29:49.284Z,21.11
2022-10-30T11:32:20.296Z,21.23
2022-10-30T11:34:46.960Z,21.32
2022-10-30T11:37:33.225Z,21.26
2022-10-30T11:40:08.299Z,21.41
2022-10-30T11:42:36.235Z,21.48
2022-10-30T11:45:04.739Z,21.53
2022-10-30T11:47:37.633Z,21.48
2022-10-30T11:50:26.210Z,21.45
2022-10-30T11:52:57.729Z,21.48
2022-10-30T11:55:34.721Z,21.61
2022-10-30T11:58:02.252Z,21.66
2022-10-30T12:00:32.921Z,21.76
2022-10-30T12:03:01.241Z,21.80
2022-10-30T12:05:38.456Z,21.72
2022-10-30T12:08:07.702Z,21.68
2022-10-30T12:10:41.167Z,21.72
2022-10-30T12:13:16.037Z,21.70
2022-10-30T12:15:44.644Z,21.64
2022-10-30T12:20:58.689Z,21.37
2022-10-30T12:23:27.583Z,21.35
2022-10-30T12:26:11.698Z,21.27
2022-10-30T12:28:39.503Z,21.20
2022-10-30T12:31:12.878Z,21.21
2022-10-30T12:33:51.017Z,21.28
2022-10-30T12:36:21.683Z,21.34
2022-10-30T12:38:48.086Z,21.31
2022-10-30T12:41:43.611Z,21.26
2022-10-30T12:44:29.365Z,21.24
2022-10-30T12:47:27.174Z,21.25
2022-10-30T12:50:18.646Z,21.23
2022-10-30T12:53:06.166Z,21.21
2022-10-30T12:55:48.024Z,21.18
2022-10-30T12:58:19.832Z,21.19
2022-10-30T13:00:54.735Z,21.20
2022-10-30T13:03:32.769Z,21.22
2022-10-30T13:06:08.383Z,21.23
2022-10-30T13:08:39.888Z,21.20
2022-10-30T13:11:25.321Z,21.21
2022-10-30T13:13:55.352Z,21.17
2022-10-30T13:16:32.228Z,21.15
2022-10-30T13:19:03.184Z,21.15
2022-10-30T13:21:56.230Z,21.20
2022-10-30T13:24:57.904Z,21.18
2022-10-30T13:27:51.775Z,21.17
2022-10-30T13:30:23.385Z,21.16
2022-10-30T13:33:20.305Z,21.16
2022-10-30T13:36:01.930Z,21.15
2022-10-30T13:38:46.818Z,21.14
2022-10-30T13:41:40.997Z,21.13
2022-10-30T13:44:16.536Z,21.14
2022-10-30T13:47:03.200Z,21.11
2022-10-30T13:49:41.722Z,21.08
2022-10-30T13:52:16.660Z,21.07
2022-10-30T13:55:19.351Z,21.06
2022-10-30T13:57:56.540Z,21.07
2022-10-30T14:00:45.575Z,21.07
2022-10-30T14:03:22.627Z,21.11
2022-10-30T14:05:54.048Z,21.15
2022-10-30T14:08:25.842Z,21.18
2022-10-30T14:10:59.350Z,21.25
2022-10-30T14:13:44.076Z,21.34
2022-10-30T14:16:36.523Z,21.46
2022-10-30T14:19:04.390Z,21.60
2022-10-30T14:21:44.696Z,21.69
2022-10-30T14:24:29.496Z,21.72
2022-10-30T14:27:05.485Z,21.71
2022-10-30T14:29:34.858Z,21.71
2022-10-30T14:32:02.095Z,21.77
2022-10-30T14:35:01.249Z,21.79
2022-10-30T14:37:27.687Z,21.72
2022-10-30T14:39:55.762Z,21.44
2022-10-30T14:42:51.183Z,21.16
2022-10-30T14:45:29.498Z,20.89
2022-10-30T14:48:27.272Z,20.69
2022-10-30T14:51:12.553Z,20.53
2022-10-30T14:53:52.094Z,20.39
2022-10-30T14:56:29.694Z,20.23
2022-10-30T14:59:09.837Z,20.06
2022-10-30T15:01:45.486Z,19.88
2022-10-30T15:04:18.392Z,19.73
2022-10-30T15:07:13.067Z,19.56
2022-10-30T15:10:03.022Z,19.33
2022-10-30T15:13:03.359Z,19.09
2022-10-30T15:15:30.674Z,18.86
2022-10-30T15:18:01.468Z,18.67
2022-10-30T15:20:32.146Z,18.47
2022-10-30T15:23:03.030Z,18.18
2022-10-30T15:25:34.583Z,17.92
2022-10-30T15:28:01.449Z,17.70
2022-10-30T15:30:28.466Z,17.48
2022-10-30T15:32:55.196Z,17.28
2022-10-30T15:35:27.355Z,17.11
2022-10-30T15:38:07.767Z,16.95
2022-10-30T15:40:36.327Z,16.77
2022-10-30T15:43:05.389Z,16.60
2022-10-30T15:45:37.338Z,16.44
2022-10-30T15:48:19.446Z,16.29
2022-10-30T15:51:00.893Z,16.11
2022-10-30T15:53:36.461Z,15.95
2022-10-30T15:56:04.584Z,15.78
2022-10-30T15:58:34.960Z,15.64
2022-10-30T16:01:02.257Z,15.52
2022-10-30T16:03:29.878Z,15.44
2022-10-30T16:06:15.369Z,15.34
2022-10-30T16:08:48.147Z,15.20
2022-10-30T16:11:15.824Z,15.07
2022-10-30T16:13:42.774Z,14.95
2022-10-30T16:16:17.435Z,14.84
2022-10-30T16:18:44.260Z,14.72
2022-10-30T16:21:15.928Z,14.61
2022-10-30T16:23:52.171Z,14.50
2022-10-30T16:26:27.620Z,14.37
2022-10-30T16:28:54.161Z,14.25
2022-10-30T16:31:21.020Z,14.14
2022-10-30T16:33:48.772Z,14.02
2022-10-30T16:36:17.771Z,13.89
2022-10-30T16:38:47.488Z,13.77
2022-10-30T16:41:14.666Z,13.65
2022-10-30T16:43:43.478Z,13.55
2022-10-30T16:46:16.131Z,13.41
2022-10-30T16:48:57.980Z,13.29
2022-10-30T16:51:24.774Z,13.18
2022-10-30T16:53:52.947Z,13.11
2022-10-30T16:56:24.299Z,13.12
2022-10-30T16:58:53.426Z,13.14
2022-10-30T17:01:26.123Z,13.09
2022-10-30T17:03:54.376Z,13.00
2022-10-30T17:06:42.435Z,12.91
2022-10-30T17:09:19.803Z,12.84
2022-10-30T17:12:00.483Z,12.76
2022-10-30T17:14:27.013Z,12.67
2022-10-30T17:16:56.118Z,12.58
2022-10-30T17:19:32.014Z,12.49
2022-10-30T17:22:02.215Z,12.40
2022-10-30T17:24:33.147Z,12.29
2022-10-30T17:27:02.349Z,12.19
2022-10-30T17:29:38.146Z,12.09
2022-10-30T17:32:06.597Z,11.99
2022-10-30T17:34:39.040Z,11.90
2022-10-30T17:37:05.458Z,11.87
2022-10-30T17:39:31.914Z,11.89
2022-10-30T17:41:58.382Z,11.89
2022-10-30T17:44:26.265Z,11.87
2022-10-30T17:46:53.003Z,11.86
2022-10-30T17:49:26.745Z,11.85
2022-10-30T17:51:53.590Z,11.80
2022-10-30T17:54:20.919Z,11.74
2022-10-30T17:56:47.669Z,11.67
2022-10-30T17:59:14.714Z,11.61
2022-10-30T18:01:41.852Z,11.57
2022-10-30T18:04:21.324Z,11.52
2022-10-30T18:06:48.724Z,11.46
2022-10-30T18:09:15.259Z,11.41
2022-10-30T18:11:41.864Z,11.36
2022-10-30T18:14:11.310Z,11.31
2022-10-30T18:16:38.737Z,11.27
2022-10-30T18:19:10.554Z,11.21
2022-10-30T18:21:37.240Z,11.16
2022-10-30T18:24:10.498Z,11.10
2022-10-30T18:26:40.448Z,11.06
2022-10-30T18:29:08.752Z,11.02
2022-10-30T18:31:36.408Z,10.96
2022-10-30T18:34:03.583Z,10.90
2022-10-30T18:36:30.318Z,10.82
2022-10-30T18:38:56.853Z,10.77
2022-10-30T18:41:36.632Z,10.71
2022-10-30T18:44:04.109Z,10.65
2022-10-30T18:46:31.623Z,10.58
2022-10-30T18:48:58.268Z,10.52
2022-10-30T18:51:27.094Z,10.47
2022-10-30T18:53:54.229Z,10.41
2022-10-30T18:56:24.397Z,10.35
2022-10-30T18:58:54.925Z,10.28
2022-10-30T19:01:25.877Z,10.24
2022-10-30T19:03:52.967Z,10.24
2022-10-30T19:06:22.281Z,10.24
2022-10-30T19:08:49.257Z,10.19
2022-10-30T19:11:24.028Z,10.14
2022-10-30T19:13:52.557Z,10.09
2022-10-30T19:16:20.500Z,10.06
2022-10-30T19:18:47.561Z,10.01
2022-10-30T19:21:25.531Z,9.94
2022-10-30T19:23:52.832Z,9.86
2022-10-30T19:26:19.320Z,9.81
2022-10-30T19:28:46.121Z,9.76
2022-10-30T19:31:18.702Z,9.71
2022-10-30T19:33:46.469Z,9.68
2022-10-30T19:36:30.522Z,9.61
2022-10-30T19:38:57.522Z,9.54
2022-10-30T19:41:24.232Z,9.48
2022-10-30T19:43:50.891Z,9.44
2022-10-30T19:46:17.501Z,9.40
2022-10-30T19:49:00.124Z,9.35
2022-10-30T19:51:28.684Z,9.36
2022-10-30T19:53:55.451Z,9.33
2022-10-30T19:56:22.423Z,9.29
2022-10-30T19:58:49.760Z,9.26
2022-10-30T20:01:17.090Z,9.23
2022-10-30T20:03:43.993Z,9.19
2022-10-30T20:06:14.978Z,9.15
2022-10-30T20:08:41.772Z,9.11
2022-10-30T20:11:08.820Z,9.05
2022-10-30T20:13:35.808Z,8.99
2022-10-30T20:16:02.742Z,8.94
2022-10-30T20:18:31.885Z,8.92
2022-10-30T20:21:01.667Z,8.87
2022-10-30T20:23:28.896Z,8.82
2022-10-30T20:26:00.836Z,8.78
2022-10-30T20:28:40.380Z,8.72
2022-10-30T20:31:08.489Z,8.70
2022-10-30T20:33:35.225Z,8.68
2022-10-30T20:36:01.885Z,8.70
2022-10-30T20:38:32.504Z,8.68
2022-10-30T20:41:00.996Z,8.65
2022-10-30T20:43:30.398Z,8.61
2022-10-30T20:45:57.790Z,8.57
2022-10-30T20:48:24.700Z,8.51
2022-10-30T20:50:59.986Z,8.47
2022-10-30T20:53:27.150Z,8.40
2022-10-30T20:55:53.746Z,8.34
2022-10-30T20:58:21.429Z,8.34
2022-10-30T21:00:48.214Z,8.40
2022-10-30T21:03:15.109Z,8.40
2022-10-30T21:05:44.779Z,8.36
2022-10-30T21:08:13.040Z,8.31
2022-10-30T21:10:40.163Z,8.26
2022-10-30T21:13:09.477Z,8.20
2022-10-30T21:15:41.616Z,8.15
2022-10-30T21:18:08.968Z,8.11
2022-10-30T21:20:36.371Z,8.09
2022-10-30T21:23:03.008Z,8.09
2022-10-30T21:25:29.619Z,8.11
2022-10-30T21:27:57.119Z,8.10
2022-10-30T21:30:24.073Z,8.09
2022-10-30T21:32:50.610Z,8.05
2022-10-30T21:35:17.350Z,8.01
2022-10-30T21:37:43.893Z,7.98
2022-10-30T21:40:11.048Z,8.01
2022-10-30T21:42:37.492Z,7.99
2022-10-30T21:45:04.846Z,7.97
2022-10-30T21:47:31.386Z,7.93
2022-10-30T21:49:57.930Z,7.92
2022-10-30T21:52:24.474Z,7.93
2022-10-30T21:54:50.962Z,7.94
2022-10-30T21:57:17.448Z,7.93
2022-10-30T21:59:43.940Z,7.89
2022-10-30T22:02:14.672Z,7.83
2022-10-30T22:04:41.194Z,7.78
2022-10-30T22:07:07.920Z,7.73
2022-10-30T22:09:34.555Z,7.68
2022-10-30T22:12:00.984Z,7.62
2022-10-30T22:14:27.550Z,7.55
2022-10-30T22:16:54.054Z,7.47
2022-10-30T22:19:20.527Z,7.41
2022-10-30T22:21:46.959Z,7.38
2022-10-30T22:24:13.444Z,7.34
2022-10-30T22:26:39.940Z,7.30
2022-10-30T22:29:06.396Z,7.26
2022-10-30T22:31:33.037Z,7.24
2022-10-30T22:34:01.103Z,7.20
2022-10-30T22:36:30.194Z,7.18
2022-10-30T22:39:02.093Z,7.19
2022-10-30T22:41:34.523Z,7.16
2022-10-30T22:44:06.046Z,7.15
2022-10-30T22:46:32.540Z,7.15
2022-10-30T22:48:59.713Z,7.17
2022-10-30T22:51:26.640Z,7.17
2022-10-30T22:53:59.741Z,7.14
2022-10-30T22:56:29.448Z,7.11
2022-10-30T22:58:56.341Z,7.08
2022-10-30T23:01:28.692Z,7.03
2022-10-30T23:03:57.296Z,6.98
2022-10-30T23:06:24.419Z,6.96
2022-10-30T23:08:56.380Z,6.94
2022-10-30T23:11:23.956Z,6.93
2022-10-30T23:13:50.493Z,6.97
2022-10-30T23:16:20.418Z,6.97
2022-10-30T23:18:47.828Z,6.95
2022-10-30T23:21:20.786Z,6.96
2022-10-30T23:23:48.120Z,6.96
2022-10-30T23:26:16.028Z,6.93
2022-10-30T23:28:43.055Z,6.89
2022-10-30T23:31:23.616Z,6.86
2022-10-30T23:33:52.938Z,6.84
2022-10-30T23:36:20.809Z,6.82
2022-10-30T23:38:54.943Z,6.80
2022-10-30T23:41:23.399Z,6.79
2022-10-30T23:43:57.105Z,6.81
2022-10-30T23:46:24.266Z,6.81
2022-10-30T23:48:51.314Z,6.77
2022-10-30T23:51:18.609Z,6.73
2022-10-30T23:53:45.117Z,6.68
2022-10-30T23:56:12.169Z,6.61
2022-10-30T23:58:38.890Z,6.56
